createdAt,value
2019-03-10T00:00:01.465Z,998.63
2019-03-10T00:01:01.447Z,998.71
2019-03-10T00:02:01.476Z,998.59
2019-03-10T00:03:01.425Z,998.67
2019-03-10T00:04:01.411Z,998.67
2019-03-10T00:05:01.407Z,998.66
2019-03-10T00:06:01.395Z,998.67
2019-03-10T00:07:01.386Z,998.71
2019-03-10T00:08:08.043Z,998.75
2019-03-10T00:09:01.365Z,998.77
2019-03-10T00:10:01.360Z,998.85
2019-03-10T00:11:01.345Z,998.82
2019-03-10T00:12:01.355Z,998.85
2019-03-10T00:13:01.320Z,998.83
2019-03-10T00:14:01.310Z,998.81
2019-03-10T00:15:01.293Z,998.84
2019-03-10T00:16:01.293Z,998.85
2019-03-10T00:17:01.301Z,998.84
2019-03-10T00:18:01.261Z,998.74
2019-03-10T00:19:01.251Z,998.74
2019-03-10T00:20:01.239Z,998.77
2019-03-10T00:21:01.231Z,998.77
2019-03-10T00:22:01.258Z,998.81
2019-03-10T00:23:01.212Z,998.79
2019-03-10T00:24:01.212Z,998.82
2019-03-10T00:25:01.186Z,998.83
2019-03-10T00:26:01.174Z,998.80
2019-03-10T00:27:01.185Z,998.74
2019-03-10T00:28:01.176Z,998.75
2019-03-10T00:29:01.146Z,998.80
2019-03-10T00:30:01.139Z,998.66
2019-03-10T00:31:01.125Z,998.62
2019-03-10T00:32:01.113Z,998.66
2019-03-10T00:33:01.137Z,998.65
2019-03-10T00:34:01.090Z,998.58
2019-03-10T00:35:01.083Z,998.57
2019-03-10T00:36:01.090Z,998.59
2019-03-10T00:37:01.058Z,998.59
2019-03-10T00:38:01.087Z,998.61
2019-03-10T00:39:01.043Z,998.76
2019-03-10T00:40:01.026Z,998.69
2019-03-10T00:41:01.018Z,998.66
2019-03-10T00:42:01.012Z,998.67
2019-03-10T00:43:00.994Z,998.70
2019-03-10T00:44:01.020Z,998.69
2019-03-10T00:45:00.994Z,998.65
2019-03-10T00:46:01.002Z,998.72
2019-03-10T00:47:00.954Z,998.76
2019-03-10T00:48:00.942Z,998.71
2019-03-10T00:49:00.936Z,998.76
2019-03-10T00:50:00.958Z,998.67
2019-03-10T00:51:00.909Z,998.62
2019-03-10T00:52:00.893Z,998.61
2019-03-10T00:53:00.890Z,998.72
2019-03-10T00:54:00.880Z,998.71
2019-03-10T00:55:59.852Z,998.84
2019-03-10T00:57:00.846Z,998.89
2019-03-10T00:58:00.825Z,998.84
2019-03-10T00:59:01.353Z,998.91
2019-03-10T01:00:01.216Z,998.87
2019-03-10T01:01:00.794Z,998.90
2019-03-10T01:02:00.792Z,998.85
2019-03-10T01:03:00.775Z,998.84
2019-03-10T01:04:00.773Z,998.94
2019-03-10T01:05:00.784Z,998.97
2019-03-10T01:06:00.744Z,998.90
2019-03-10T01:07:01.830Z,998.86
2019-03-10T01:08:00.726Z,998.86
2019-03-10T01:09:03.350Z,998.91
2019-03-10T01:10:00.739Z,998.91
2019-03-10T01:11:00.691Z,998.86
2019-03-10T01:12:00.691Z,998.82
2019-03-10T01:13:00.716Z,998.80
2019-03-10T01:14:00.659Z,998.78
2019-03-10T01:15:00.888Z,998.71
2019-03-10T01:16:00.646Z,998.70
2019-03-10T01:17:00.626Z,998.68
2019-03-10T01:18:00.622Z,998.66
2019-03-10T01:19:00.605Z,998.77
2019-03-10T01:20:00.597Z,998.75
2019-03-10T01:21:00.610Z,998.74
2019-03-10T01:22:00.572Z,998.75
2019-03-10T01:23:00.563Z,998.68
2019-03-10T01:24:00.610Z,998.71
2019-03-10T01:25:01.392Z,998.73
2019-03-10T01:26:00.535Z,998.77
2019-03-10T01:27:00.526Z,998.70
2019-03-10T01:28:00.511Z,998.73
2019-03-10T01:29:00.500Z,998.75
2019-03-10T01:30:00.498Z,998.81
2019-03-10T01:31:00.506Z,998.81
2019-03-10T01:32:00.466Z,998.75
2019-03-10T01:33:00.467Z,998.74
2019-03-10T01:34:00.448Z,998.69
2019-03-10T01:35:00.446Z,998.68
2019-03-10T01:36:00.425Z,998.66
2019-03-10T01:37:00.434Z,998.63
2019-03-10T01:38:00.399Z,998.63
2019-03-10T01:39:00.390Z,998.65
2019-03-10T01:40:00.385Z,998.70
2019-03-10T01:41:00.370Z,998.61
2019-03-10T01:42:00.356Z,998.51
2019-03-10T01:43:00.376Z,998.57
2019-03-10T01:44:00.341Z,998.55
2019-03-10T01:45:02.851Z,998.57
2019-03-10T01:46:00.349Z,998.58
2019-03-10T01:47:00.310Z,998.47
2019-03-10T01:48:00.292Z,998.44
2019-03-10T01:49:00.280Z,998.38
2019-03-10T01:50:00.405Z,998.45
2019-03-10T01:51:00.258Z,998.43
2019-03-10T01:52:00.347Z,998.40
2019-03-10T01:53:00.241Z,998.40
2019-03-10T01:54:00.228Z,998.44
2019-03-10T01:55:00.368Z,998.44
2019-03-10T01:56:00.240Z,998.44
2019-03-10T01:57:00.193Z,998.42
2019-03-10T01:58:00.183Z,998.39
2019-03-10T01:59:00.188Z,998.41
2019-03-10T02:00:00.320Z,998.39
2019-03-10T02:01:00.190Z,998.41
2019-03-10T02:02:00.140Z,998.38
2019-03-10T02:03:00.128Z,998.35
2019-03-10T02:04:00.125Z,998.37
2019-03-10T02:05:00.188Z,998.35
2019-03-10T02:06:00.099Z,998.38
2019-03-10T02:07:00.111Z,998.35
2019-03-10T02:08:00.081Z,998.25
2019-03-10T02:09:00.069Z,998.25
2019-03-10T02:10:00.056Z,998.27
2019-03-10T02:11:00.082Z,998.27
2019-03-10T02:12:00.040Z,998.30
2019-03-10T02:13:00.030Z,998.24
2019-03-10T02:14:00.016Z,998.18
2019-03-10T02:15:00.002Z,998.17
2019-03-10T02:16:00.020Z,998.18
2019-03-10T02:16:59.987Z,998.15
2019-03-10T02:18:02.832Z,998.16
2019-03-10T02:18:59.958Z,998.17
2019-03-10T02:19:59.951Z,998.20
2019-03-10T02:20:59.979Z,998.16
2019-03-10T02:21:59.932Z,998.14
2019-03-10T02:22:59.926Z,998.18
2019-03-10T02:23:59.905Z,998.19
2019-03-10T02:24:59.899Z,998.15
2019-03-10T02:25:59.880Z,998.14
2019-03-10T02:26:59.917Z,998.11
2019-03-10T02:27:59.861Z,998.16
2019-03-10T02:28:59.853Z,998.07
2019-03-10T02:29:59.840Z,998.07
2019-03-10T02:30:59.826Z,998.13
2019-03-10T02:31:59.831Z,998.07
2019-03-10T02:32:59.850Z,998.05
2019-03-10T02:33:59.801Z,998.10
2019-03-10T02:34:59.784Z,998.10
2019-03-10T02:35:59.874Z,998.07
2019-03-10T02:36:59.780Z,998.09
2019-03-10T02:37:59.763Z,998.09
2019-03-10T02:38:59.770Z,998.15
2019-03-10T02:39:59.751Z,998.03
2019-03-10T02:41:00.325Z,998.04
2019-03-10T02:41:59.752Z,998.10
2019-03-10T02:42:59.697Z,997.99
2019-03-10T02:43:59.687Z,998.06
2019-03-10T02:44:59.676Z,998.01
2019-03-10T02:45:59.671Z,998.06
2019-03-10T02:46:59.729Z,998.08
2019-03-10T02:47:59.647Z,998.07
2019-03-10T02:48:59.634Z,998.11
2019-03-10T02:49:59.656Z,998.06
2019-03-10T02:50:59.616Z,997.99
2019-03-10T02:51:59.638Z,997.98
2019-03-10T02:52:59.595Z,997.91
2019-03-10T02:53:59.584Z,997.81
2019-03-10T02:54:59.573Z,997.87
2019-03-10T02:55:59.557Z,997.90
2019-03-10T02:56:59.588Z,997.84
2019-03-10T02:57:59.542Z,997.89
2019-03-10T02:58:59.531Z,997.81
2019-03-10T03:00:02.316Z,997.79
2019-03-10T03:00:59.515Z,997.85
2019-03-10T03:01:59.498Z,997.83
2019-03-10T03:02:59.531Z,997.76
2019-03-10T03:03:59.474Z,997.76
2019-03-10T03:04:59.470Z,997.74
2019-03-10T03:05:59.452Z,997.75
2019-03-10T03:06:59.441Z,997.69
2019-03-10T03:07:59.427Z,997.73
2019-03-10T03:08:59.474Z,997.71
2019-03-10T03:09:59.410Z,997.63
2019-03-10T03:10:59.418Z,997.66
2019-03-10T03:12:00.317Z,997.67
2019-03-10T03:12:59.380Z,997.58
2019-03-10T03:13:59.372Z,997.65
2019-03-10T03:14:59.383Z,997.63
2019-03-10T03:15:59.350Z,997.58
2019-03-10T03:16:59.381Z,997.68
2019-03-10T03:17:59.333Z,997.63
2019-03-10T03:18:59.319Z,997.71
2019-03-10T03:19:59.302Z,997.62
2019-03-10T03:20:59.332Z,997.66
2019-03-10T03:21:59.289Z,997.65
2019-03-10T03:22:59.269Z,997.60
2019-03-10T03:23:59.268Z,997.57
2019-03-10T03:24:59.252Z,997.56
2019-03-10T03:25:59.242Z,997.54
2019-03-10T03:27:02.303Z,997.56
2019-03-10T03:27:59.221Z,997.50
2019-03-10T03:28:59.271Z,997.47
2019-03-10T03:29:59.223Z,997.49
2019-03-10T03:30:59.194Z,997.34
2019-03-10T03:31:59.172Z,997.43
2019-03-10T03:32:59.159Z,997.31
2019-03-10T03:33:59.147Z,997.33
2019-03-10T03:34:59.141Z,997.40
2019-03-10T03:36:00.862Z,997.33
2019-03-10T03:36:59.121Z,997.33
2019-03-10T03:37:59.107Z,997.27
2019-03-10T03:38:59.098Z,997.34
2019-03-10T03:39:59.099Z,997.28
2019-03-10T03:40:59.166Z,997.28
2019-03-10T03:41:59.104Z,997.23
2019-03-10T03:42:59.048Z,997.18
2019-03-10T03:43:59.042Z,997.27
2019-03-10T03:44:59.028Z,997.12
2019-03-10T03:47:00.799Z,997.16
2019-03-10T03:47:59.027Z,997.06
2019-03-10T03:48:58.988Z,997.11
2019-03-10T03:49:58.971Z,997.12
2019-03-10T03:50:58.967Z,997.11
2019-03-10T03:51:58.949Z,997.12
2019-03-10T03:52:58.945Z,997.09
2019-03-10T03:54:00.903Z,997.12
2019-03-10T03:54:58.922Z,997.15
2019-03-10T03:55:58.919Z,997.04
2019-03-10T03:56:58.903Z,997.05
2019-03-10T03:57:58.895Z,996.98
2019-03-10T03:58:58.932Z,997.00
2019-03-10T03:59:58.877Z,996.96
2019-03-10T04:00:58.862Z,997.01
2019-03-10T04:01:58.879Z,997.00
2019-03-10T04:02:58.892Z,997.01
2019-03-10T04:03:58.848Z,996.99
2019-03-10T04:04:58.809Z,997.06
2019-03-10T04:05:58.816Z,997.03
2019-03-10T04:06:58.825Z,997.10
2019-03-10T04:07:58.782Z,997.04
2019-03-10T04:08:58.772Z,997.07
2019-03-10T04:09:58.762Z,997.03
2019-03-10T04:10:58.753Z,997.00
2019-03-10T04:11:58.745Z,996.95
2019-03-10T04:12:58.751Z,996.94
2019-03-10T04:13:58.712Z,996.97
2019-03-10T04:14:58.710Z,996.94
2019-03-10T04:15:58.707Z,997.01
2019-03-10T04:16:58.683Z,996.96
2019-03-10T04:17:58.700Z,996.93
2019-03-10T04:18:58.667Z,996.92
2019-03-10T04:20:57.635Z,996.94
2019-03-10T04:21:58.724Z,996.96
2019-03-10T04:22:58.617Z,996.97
2019-03-10T04:23:58.626Z,996.94
2019-03-10T04:24:58.599Z,996.99
2019-03-10T04:25:58.589Z,996.96
2019-03-10T04:26:58.585Z,996.95
2019-03-10T04:27:58.589Z,996.87
2019-03-10T04:29:01.293Z,996.90
2019-03-10T04:29:58.559Z,996.90
2019-03-10T04:30:58.529Z,996.86
2019-03-10T04:31:58.524Z,996.82
2019-03-10T04:32:58.533Z,996.77
2019-03-10T04:33:58.557Z,996.81
2019-03-10T04:34:58.495Z,996.76
2019-03-10T04:35:58.485Z,996.76
2019-03-10T04:36:58.471Z,996.77
2019-03-10T04:37:58.455Z,996.70
2019-03-10T04:38:58.452Z,996.70
2019-03-10T04:39:58.481Z,996.77
2019-03-10T04:40:58.430Z,996.78
2019-03-10T04:41:58.412Z,996.75
2019-03-10T04:42:58.403Z,996.76
2019-03-10T04:43:58.393Z,996.75
2019-03-10T04:44:58.379Z,996.70
2019-03-10T04:45:58.391Z,996.72
2019-03-10T04:46:58.365Z,996.69
2019-03-10T04:47:58.349Z,996.72
2019-03-10T04:48:58.340Z,996.81
2019-03-10T04:49:58.358Z,996.75
2019-03-10T04:50:58.320Z,996.69
2019-03-10T04:51:58.307Z,996.70
2019-03-10T04:52:58.300Z,996.69
2019-03-10T04:53:58.781Z,996.70
2019-03-10T04:54:58.268Z,996.73
2019-03-10T04:55:58.284Z,996.63
2019-03-10T04:56:59.067Z,996.68
2019-03-10T04:57:58.236Z,996.66
2019-03-10T04:58:58.226Z,996.62
2019-03-10T04:59:58.218Z,996.63
2019-03-10T05:00:58.203Z,996.62
2019-03-10T05:01:58.217Z,996.59
2019-03-10T05:02:58.178Z,996.58
2019-03-10T05:03:58.170Z,996.58
2019-03-10T05:04:58.164Z,996.57
2019-03-10T05:05:58.186Z,996.54
2019-03-10T05:06:58.138Z,996.45
2019-03-10T05:07:58.169Z,996.45
2019-03-10T05:08:58.149Z,996.50
2019-03-10T05:09:58.104Z,996.46
2019-03-10T05:10:58.093Z,996.45
2019-03-10T05:11:58.080Z,996.46
2019-03-10T05:12:58.074Z,996.40
2019-03-10T05:13:58.061Z,996.44
2019-03-10T05:14:58.087Z,996.43
2019-03-10T05:15:58.044Z,996.40
2019-03-10T05:16:58.027Z,996.38
2019-03-10T05:17:58.045Z,996.41
2019-03-10T05:18:58.005Z,996.37
2019-03-10T05:19:58.009Z,996.39
2019-03-10T05:20:57.988Z,996.34
2019-03-10T05:21:57.974Z,996.34
2019-03-10T05:22:57.972Z,996.33
2019-03-10T05:23:57.980Z,996.35
2019-03-10T05:24:57.971Z,996.34
2019-03-10T05:26:56.920Z,996.32
2019-03-10T05:27:57.912Z,996.27
2019-03-10T05:28:57.898Z,996.27
2019-03-10T05:29:57.934Z,996.27
2019-03-10T05:30:57.878Z,996.22
2019-03-10T05:31:57.863Z,996.20
2019-03-10T05:32:57.880Z,996.17
2019-03-10T05:33:57.896Z,996.17
2019-03-10T05:34:57.831Z,996.17
2019-03-10T05:35:57.824Z,996.19
2019-03-10T05:36:57.806Z,996.19
2019-03-10T05:37:57.794Z,996.16
2019-03-10T05:38:57.784Z,996.09
2019-03-10T05:39:58.772Z,996.18
2019-03-10T05:40:57.776Z,996.20
2019-03-10T05:41:57.757Z,996.20
2019-03-10T05:42:57.742Z,996.16
2019-03-10T05:43:58.829Z,996.16
2019-03-10T05:44:57.725Z,996.14
2019-03-10T05:45:57.770Z,996.12
2019-03-10T05:46:57.700Z,996.11
2019-03-10T05:47:57.693Z,996.11
2019-03-10T05:48:57.674Z,996.08
2019-03-10T05:49:57.661Z,996.09
2019-03-10T05:50:57.654Z,996.08
2019-03-10T05:51:59.314Z,996.03
2019-03-10T05:52:57.642Z,996.04
2019-03-10T05:53:57.652Z,996.02
2019-03-10T05:54:57.616Z,996.04
2019-03-10T05:55:57.601Z,996.00
2019-03-10T05:56:57.596Z,996.05
2019-03-10T05:57:57.588Z,995.98
2019-03-10T05:58:57.562Z,995.99
2019-03-10T05:59:57.588Z,996.00
2019-03-10T06:00:57.544Z,995.93
2019-03-10T06:01:57.536Z,995.91
2019-03-10T06:02:57.520Z,995.94
2019-03-10T06:03:57.515Z,995.94
2019-03-10T06:04:57.496Z,995.88
2019-03-10T06:05:57.542Z,995.91
2019-03-10T06:06:57.480Z,995.86
2019-03-10T06:08:56.452Z,995.87
2019-03-10T06:09:57.471Z,995.85
2019-03-10T06:10:57.432Z,995.89
2019-03-10T06:11:57.420Z,995.85
2019-03-10T06:12:57.412Z,995.81
2019-03-10T06:13:57.406Z,995.76
2019-03-10T06:14:58.306Z,995.79
2019-03-10T06:15:57.378Z,995.75
2019-03-10T06:16:57.367Z,995.76
2019-03-10T06:17:57.361Z,995.70
2019-03-10T06:18:57.344Z,995.67
2019-03-10T06:19:57.368Z,995.67
2019-03-10T06:20:58.304Z,995.69
2019-03-10T06:21:57.308Z,995.71
2019-03-10T06:22:57.296Z,995.59
2019-03-10T06:23:57.286Z,995.55
2019-03-10T06:24:57.278Z,995.62
2019-03-10T06:25:57.277Z,995.58
2019-03-10T06:26:57.265Z,995.61
2019-03-10T06:27:57.244Z,995.60
2019-03-10T06:28:57.247Z,995.56
2019-03-10T06:29:57.228Z,995.52
2019-03-10T06:30:57.218Z,995.53
2019-03-10T06:31:57.216Z,995.54
2019-03-10T06:32:57.190Z,995.51
2019-03-10T06:33:57.186Z,995.46
2019-03-10T06:34:57.182Z,995.47
2019-03-10T06:35:57.156Z,995.45
2019-03-10T06:36:57.160Z,995.46
2019-03-10T06:37:57.138Z,995.44
2019-03-10T06:38:57.150Z,995.46
2019-03-10T06:39:57.111Z,995.47
2019-03-10T06:40:57.098Z,995.46
2019-03-10T06:41:57.136Z,995.44
2019-03-10T06:42:57.083Z,995.47
2019-03-10T06:43:57.094Z,995.43
2019-03-10T06:44:57.056Z,995.43
2019-03-10T06:45:57.047Z,995.39
2019-03-10T06:46:57.037Z,995.31
2019-03-10T06:47:57.053Z,995.29
2019-03-10T06:48:57.014Z,995.26
2019-03-10T06:49:57.004Z,995.21
2019-03-10T06:50:56.998Z,995.16
2019-03-10T06:51:56.978Z,995.08
2019-03-10T06:52:56.974Z,995.07
2019-03-10T06:53:56.992Z,995.08
2019-03-10T06:54:56.946Z,995.03
2019-03-10T06:55:56.936Z,995.08
2019-03-10T06:56:56.925Z,995.05
2019-03-10T06:57:56.926Z,994.97
2019-03-10T06:58:56.906Z,994.99
2019-03-10T06:59:56.932Z,994.97
2019-03-10T07:00:56.876Z,994.99
2019-03-10T07:01:56.866Z,994.93
2019-03-10T07:02:56.861Z,994.89
2019-03-10T07:03:56.854Z,994.89
2019-03-10T07:04:56.832Z,994.83
2019-03-10T07:05:56.864Z,994.80
2019-03-10T07:06:56.846Z,994.78
2019-03-10T07:07:56.806Z,994.79
2019-03-10T07:08:56.795Z,994.78
2019-03-10T07:09:59.788Z,994.85
2019-03-10T07:10:56.774Z,994.81
2019-03-10T07:11:56.760Z,994.79
2019-03-10T07:12:56.779Z,994.76
2019-03-10T07:13:56.736Z,994.73
2019-03-10T07:14:56.734Z,994.71
2019-03-10T07:15:56.709Z,994.72
2019-03-10T07:16:56.706Z,994.69
2019-03-10T07:17:56.696Z,994.69
2019-03-10T07:18:56.711Z,994.68
2019-03-10T07:19:56.670Z,994.68
2019-03-10T07:20:57.805Z,994.67
2019-03-10T07:21:56.648Z,994.68
2019-03-10T07:22:56.640Z,994.62
2019-03-10T07:23:56.628Z,994.57
2019-03-10T07:24:56.636Z,994.54
2019-03-10T07:25:56.612Z,994.52
2019-03-10T07:26:56.596Z,994.44
2019-03-10T07:27:56.595Z,994.35
2019-03-10T07:28:56.574Z,994.20
2019-03-10T07:29:56.586Z,994.20
2019-03-10T07:30:56.552Z,994.14
2019-03-10T07:31:56.548Z,994.08
2019-03-10T07:32:56.533Z,994.08
2019-03-10T07:33:56.518Z,994.06
2019-03-10T07:34:56.540Z,994.01
2019-03-10T07:35:56.504Z,994.05
2019-03-10T07:36:56.485Z,994.07
2019-03-10T07:37:56.470Z,994.05
2019-03-10T07:38:56.459Z,994.01
2019-03-10T07:39:56.454Z,994.06
2019-03-10T07:40:56.486Z,994.06
2019-03-10T07:41:56.434Z,994.07
2019-03-10T07:42:56.416Z,994.03
2019-03-10T07:43:56.409Z,994.05
2019-03-10T07:44:56.396Z,994.05
2019-03-10T07:45:56.385Z,994.04
2019-03-10T07:46:56.409Z,994.11
2019-03-10T07:47:56.369Z,994.10
2019-03-10T07:48:56.356Z,994.11
2019-03-10T07:49:56.341Z,994.16
2019-03-10T07:50:56.336Z,994.15
2019-03-10T07:51:56.324Z,994.19
2019-03-10T07:52:56.338Z,994.21
2019-03-10T07:53:56.294Z,994.23
2019-03-10T07:54:56.289Z,994.23
2019-03-10T07:55:56.278Z,994.21
2019-03-10T07:56:56.260Z,994.21
2019-03-10T07:57:56.275Z,994.24
2019-03-10T07:58:56.284Z,994.20
2019-03-10T07:59:56.238Z,994.21
2019-03-10T08:00:56.224Z,994.25
2019-03-10T08:01:56.732Z,994.27
2019-03-10T08:02:56.225Z,994.23
2019-03-10T08:03:56.199Z,994.21
2019-03-10T08:04:56.177Z,994.23
2019-03-10T08:05:56.184Z,994.22
2019-03-10T08:06:56.155Z,994.20
2019-03-10T08:07:56.141Z,994.23
2019-03-10T08:08:56.161Z,994.24
2019-03-10T08:09:56.122Z,994.25
2019-03-10T08:10:56.107Z,994.20
2019-03-10T08:11:56.098Z,994.23
2019-03-10T08:12:56.097Z,994.18
2019-03-10T08:13:56.093Z,994.18
2019-03-10T08:14:56.097Z,994.22
2019-03-10T08:15:56.059Z,994.23
2019-03-10T08:16:56.047Z,994.18
2019-03-10T08:17:56.032Z,994.15
2019-03-10T08:18:56.057Z,994.15
2019-03-10T08:19:56.036Z,994.16
2019-03-10T08:20:56.002Z,994.15
2019-03-10T08:21:56.725Z,994.16
2019-03-10T08:22:55.984Z,994.14
2019-03-10T08:23:55.970Z,994.20
2019-03-10T08:24:56.290Z,994.13
2019-03-10T08:25:55.950Z,994.14
2019-03-10T08:26:55.938Z,994.10
2019-03-10T08:28:01.654Z,994.15
2019-03-10T08:28:55.913Z,994.12
2019-03-10T08:29:55.942Z,994.16
2019-03-10T08:30:55.891Z,994.08
2019-03-10T08:31:55.883Z,994.08
2019-03-10T08:32:55.875Z,994.09
2019-03-10T08:33:55.859Z,994.08
2019-03-10T08:34:55.889Z,994.07
2019-03-10T08:35:55.860Z,994.06
2019-03-10T08:36:55.833Z,994.10
2019-03-10T08:37:55.819Z,994.07
2019-03-10T08:38:55.799Z,994.06
2019-03-10T08:39:55.796Z,994.06
2019-03-10T08:40:55.831Z,994.06
2019-03-10T08:41:55.779Z,994.03
2019-03-10T08:42:55.761Z,994.00
2019-03-10T08:43:55.750Z,993.99
2019-03-10T08:44:55.739Z,993.88
2019-03-10T08:45:55.725Z,993.89
2019-03-10T08:46:56.221Z,993.87
2019-03-10T08:47:58.082Z,993.88
2019-03-10T08:48:55.699Z,993.83
2019-03-10T08:49:55.686Z,993.82
2019-03-10T08:50:55.681Z,993.81
2019-03-10T08:51:55.665Z,993.80
2019-03-10T08:52:55.683Z,993.81
2019-03-10T08:53:55.654Z,993.78
2019-03-10T08:54:55.629Z,993.73
2019-03-10T08:55:55.624Z,993.67
2019-03-10T08:56:55.612Z,993.65
2019-03-10T08:57:55.642Z,993.59
2019-03-10T08:58:55.597Z,993.62
2019-03-10T08:59:55.579Z,993.63
2019-03-10T09:00:58.215Z,993.59
2019-03-10T09:01:55.560Z,993.56
2019-03-10T09:02:58.215Z,993.55
2019-03-10T09:03:55.557Z,993.48
2019-03-10T09:04:55.523Z,993.46
2019-03-10T09:05:55.509Z,993.42
2019-03-10T09:06:55.498Z,993.39
2019-03-10T09:07:55.487Z,993.34
2019-03-10T09:08:55.479Z,993.34
2019-03-10T09:09:55.517Z,993.33
2019-03-10T09:10:55.455Z,993.34
2019-03-10T09:11:55.441Z,993.31
2019-03-10T09:12:55.433Z,993.30
2019-03-10T09:13:55.431Z,993.28
2019-03-10T09:14:55.421Z,993.25
2019-03-10T09:15:55.469Z,993.21
2019-03-10T09:16:55.392Z,993.20
2019-03-10T09:17:55.421Z,993.16
2019-03-10T09:18:55.366Z,993.10
2019-03-10T09:19:55.356Z,993.10
2019-03-10T09:20:55.349Z,993.01
2019-03-10T09:21:55.347Z,993.04
2019-03-10T09:22:55.767Z,992.97
2019-03-10T09:23:55.316Z,992.98
2019-03-10T09:24:55.307Z,992.96
2019-03-10T09:25:55.300Z,992.91
2019-03-10T09:26:55.280Z,992.90
2019-03-10T09:27:55.268Z,992.83
2019-03-10T09:28:55.295Z,992.81
2019-03-10T09:29:55.261Z,992.77
2019-03-10T09:30:55.242Z,992.75
2019-03-10T09:31:55.257Z,992.72
2019-03-10T09:32:55.227Z,992.71
2019-03-10T09:33:55.207Z,992.67
2019-03-10T09:34:55.201Z,992.64
2019-03-10T09:35:55.192Z,992.59
2019-03-10T09:36:55.167Z,992.56
2019-03-10T09:37:55.193Z,992.54
2019-03-10T09:38:55.186Z,992.49
2019-03-10T09:39:55.136Z,992.46
2019-03-10T09:40:55.130Z,992.47
2019-03-10T09:41:55.128Z,992.42
2019-03-10T09:42:55.136Z,992.44
2019-03-10T09:43:55.100Z,992.46
2019-03-10T09:44:55.091Z,992.42
2019-03-10T09:45:55.075Z,992.41
2019-03-10T09:46:55.061Z,992.38
2019-03-10T09:47:55.049Z,992.37
2019-03-10T09:48:55.075Z,992.37
2019-03-10T09:49:55.031Z,992.33
2019-03-10T09:50:57.699Z,992.37
2019-03-10T09:51:55.009Z,992.36
2019-03-10T09:52:54.993Z,992.29
2019-03-10T09:53:54.985Z,992.27
2019-03-10T09:54:55.009Z,992.21
2019-03-10T09:55:54.965Z,992.23
2019-03-10T09:56:54.948Z,992.18
2019-03-10T09:57:54.941Z,992.22
2019-03-10T09:58:54.935Z,992.20
2019-03-10T09:59:54.955Z,992.17
2019-03-10T10:00:54.935Z,992.20
2019-03-10T10:01:54.902Z,992.11
2019-03-10T10:02:54.887Z,992.13
2019-03-10T10:03:54.888Z,992.14
2019-03-10T10:04:54.861Z,992.12
2019-03-10T10:05:54.905Z,992.11
2019-03-10T10:06:54.843Z,992.05
2019-03-10T10:07:54.830Z,992.02
2019-03-10T10:08:57.696Z,992.03
2019-03-10T10:09:54.807Z,992.00
2019-03-10T10:10:54.805Z,991.99
2019-03-10T10:11:54.815Z,991.91
2019-03-10T10:12:54.777Z,991.89
2019-03-10T10:13:54.797Z,991.88
2019-03-10T10:14:54.771Z,991.88
2019-03-10T10:15:54.735Z,991.85
2019-03-10T10:16:54.762Z,991.78
2019-03-10T10:17:54.730Z,991.77
2019-03-10T10:18:54.705Z,991.70
2019-03-10T10:19:54.699Z,991.68
2019-03-10T10:20:54.686Z,991.65
2019-03-10T10:21:54.728Z,991.63
2019-03-10T10:22:54.692Z,991.57
2019-03-10T10:23:54.653Z,991.64
2019-03-10T10:24:54.640Z,991.62
2019-03-10T10:25:54.633Z,991.62
2019-03-10T10:26:54.665Z,991.55
2019-03-10T10:27:54.640Z,991.48
2019-03-10T10:28:54.601Z,991.49
2019-03-10T10:29:54.591Z,991.46
2019-03-10T10:30:54.581Z,991.42
2019-03-10T10:31:54.593Z,991.39
2019-03-10T10:32:54.558Z,991.34
2019-03-10T10:33:54.548Z,991.35
2019-03-10T10:34:54.543Z,991.26
2019-03-10T10:35:54.521Z,991.28
2019-03-10T10:36:54.511Z,991.29
2019-03-10T10:37:54.541Z,991.22
2019-03-10T10:38:54.494Z,991.18
2019-03-10T10:39:54.495Z,991.18
2019-03-10T10:40:54.482Z,991.09
2019-03-10T10:41:54.475Z,991.02
2019-03-10T10:42:54.453Z,991.00
2019-03-10T10:43:55.239Z,990.94
2019-03-10T10:44:54.427Z,990.95
2019-03-10T10:45:54.442Z,990.90
2019-03-10T10:46:54.409Z,990.86
2019-03-10T10:47:54.401Z,990.86
2019-03-10T10:48:54.394Z,990.83
2019-03-10T10:49:54.383Z,990.81
2019-03-10T10:50:54.394Z,990.82
2019-03-10T10:51:54.356Z,990.79
2019-03-10T10:52:54.343Z,990.76
2019-03-10T10:53:54.373Z,990.70
2019-03-10T10:54:54.357Z,990.67
2019-03-10T10:55:57.202Z,990.67
2019-03-10T10:56:54.293Z,990.63
2019-03-10T10:57:54.316Z,990.63
2019-03-10T10:58:54.270Z,990.59
2019-03-10T10:59:54.267Z,990.54
2019-03-10T11:00:54.255Z,990.54
2019-03-10T11:01:54.237Z,990.51
2019-03-10T11:02:57.182Z,990.43
2019-03-10T11:03:54.222Z,990.41
2019-03-10T11:04:54.212Z,990.37
2019-03-10T11:05:54.194Z,990.33
2019-03-10T11:06:54.188Z,990.24
2019-03-10T11:07:54.165Z,990.26
2019-03-10T11:08:54.213Z,990.16
2019-03-10T11:09:54.151Z,990.13
2019-03-10T11:10:54.143Z,990.11
2019-03-10T11:11:54.129Z,990.03
2019-03-10T11:12:54.113Z,990.01
2019-03-10T11:13:54.141Z,990.03
2019-03-10T11:14:54.099Z,989.96
2019-03-10T11:15:54.087Z,989.92
2019-03-10T11:16:54.071Z,989.94
2019-03-10T11:17:54.070Z,989.91
2019-03-10T11:18:54.054Z,989.86
2019-03-10T11:19:54.081Z,989.82
2019-03-10T11:20:56.277Z,989.76
2019-03-10T11:21:54.023Z,989.72
2019-03-10T11:22:54.007Z,989.66
2019-03-10T11:23:53.999Z,989.65
2019-03-10T11:24:53.985Z,989.62
2019-03-10T11:25:54.011Z,989.60
2019-03-10T11:26:53.961Z,989.56
2019-03-10T11:27:53.953Z,989.54
2019-03-10T11:28:53.949Z,989.47
2019-03-10T11:29:53.937Z,989.44
2019-03-10T11:30:53.957Z,989.40
2019-03-10T11:31:53.912Z,989.36
2019-03-10T11:32:53.893Z,989.33
2019-03-10T11:33:53.891Z,989.23
2019-03-10T11:34:53.876Z,989.16
2019-03-10T11:35:56.679Z,989.18
2019-03-10T11:36:53.893Z,989.10
2019-03-10T11:37:53.839Z,989.11
2019-03-10T11:38:56.676Z,989.04
2019-03-10T11:39:53.829Z,989.00
2019-03-10T11:40:53.807Z,988.96
2019-03-10T11:41:53.830Z,988.92
2019-03-10T11:42:56.671Z,988.94
2019-03-10T11:43:53.795Z,988.88
2019-03-10T11:44:53.766Z,988.82
2019-03-10T11:45:53.852Z,988.80
2019-03-10T11:46:53.754Z,988.74
2019-03-10T11:47:53.855Z,988.69
2019-03-10T11:48:53.726Z,988.65
2019-03-10T11:49:53.723Z,988.60
2019-03-10T11:50:53.699Z,988.51
2019-03-10T11:51:53.692Z,988.48
2019-03-10T11:52:53.677Z,988.40
2019-03-10T11:53:53.740Z,988.36
2019-03-10T11:54:53.662Z,988.28
2019-03-10T11:55:53.661Z,988.25
2019-03-10T11:56:56.174Z,988.22
2019-03-10T11:57:53.633Z,988.21
2019-03-10T11:58:53.616Z,988.17
2019-03-10T11:59:53.640Z,988.15
2019-03-10T12:00:53.637Z,988.12
2019-03-10T12:01:53.590Z,988.12
2019-03-10T12:02:56.169Z,988.07
2019-03-10T12:03:53.564Z,988.07
2019-03-10T12:04:53.589Z,988.04
2019-03-10T12:05:53.542Z,988.03
2019-03-10T12:06:53.526Z,987.96
2019-03-10T12:07:53.529Z,987.95
2019-03-10T12:08:53.505Z,987.87
2019-03-10T12:09:53.506Z,987.82
2019-03-10T12:10:53.491Z,987.76
2019-03-10T12:11:53.476Z,987.79
2019-03-10T12:12:53.462Z,987.70
2019-03-10T12:13:53.443Z,987.73
2019-03-10T12:14:53.448Z,987.62
2019-03-10T12:15:53.430Z,987.62
2019-03-10T12:16:53.453Z,987.57
2019-03-10T12:17:53.410Z,987.54
2019-03-10T12:18:53.406Z,987.51
2019-03-10T12:19:53.388Z,987.51
2019-03-10T12:20:53.370Z,987.50
2019-03-10T12:21:55.754Z,987.50
2019-03-10T12:22:56.159Z,987.48
2019-03-10T12:23:53.338Z,987.31
2019-03-10T12:24:53.335Z,987.14
2019-03-10T12:25:53.314Z,987.09
2019-03-10T12:26:53.308Z,987.02
2019-03-10T12:27:53.292Z,987.00
2019-03-10T12:28:54.160Z,987.03
2019-03-10T12:29:53.279Z,987.02
2019-03-10T12:30:53.272Z,987.04
2019-03-10T12:31:53.254Z,987.09
2019-03-10T12:32:53.241Z,987.06